Poestenkill, New York
Current Conditions -  °F | °C
As of 5:51 AM on Sunday 23 Nov 2014 (Local Time) from KALB Reporting Station
Overcast Overcast  
Wind Chill: 34°   Ceiling: 3600
Heat Index: 40°   Visibility: 10mi
Dew Point: 29°   Wind: 9mph
Humidity: 65%   Direction: 180°S
Pressure: 30.09"   Gusts: NA
Location:  42.69°N, 73.56°W
Report Text: KALB 231051Z 18008KT 10SM OVC036 04/M02 A3009 RMK AO2 RAE48 SLP192 PRESENT WX VCSH P0000 T00441017
Loading
Personal Weather Stations






























Interactive Weather Map New forecast layout! Learn more

10-Day Weather Forecast

Advertisements
Track Severe Weather on mobile